Time;durP1;ratioP1;P1;durP2;ratioP2;P2;SDS_P1;SDS_P2;PMS_P1;PMS_P2;Temp;Humidity;BMP_temperature;BMP_pressure;BME280_temperature;BME280_humidity;BME280_pressure;Samples;Min_cycle;Max_cycle;Signal;HPM_P1;HPM_P2
2021/12/04 00:02:29;;;;;;;7.30;4.20;;;;;;;;;;101309;1336;64088;-32
2021/12/04 00:04:57;;;;;;;8.20;4.20;;;;;;;;;;101265;1343;64010;-27
2021/12/04 00:07:29;;;;;;;7.20;3.90;;;;;;;;;;101293;1329;64146;-27
2021/12/04 00:10:01;;;;;;;6.60;4.00;;;;;;;;;;100643;1338;901017;-27
2021/12/04 00:12:30;;;;;;;7.20;3.70;;;;;;;;;;101290;1328;64681;-26
2021/12/04 00:15:02;;;;;;;8.50;4.00;;;;;;;;;;101288;1342;64220;-27
2021/12/04 00:17:28;;;;;;;7.00;3.80;;;;;;;;;;101267;1330;63983;-27
2021/12/04 00:19:58;;;;;;;6.80;3.40;;;;;;;;;;101271;1336;64049;-32
2021/12/04 00:22:25;;;;;;;6.10;3.50;;;;;;;;;;101276;1336;64025;-32
2021/12/04 00:24:52;;;;;;;6.80;3.60;;;;;;;;;;101155;1332;64195;-31
2021/12/04 00:27:18;;;;;;;6.70;4.10;;;;;;;;;;101313;1341;64011;-32
2021/12/04 00:29:48;;;;;;;8.80;4.20;;;;;;;;;;101250;1335;64058;-32
2021/12/04 00:32:28;;;;;;;6.70;3.70;;;;;;;;;;101313;1336;64087;-33
2021/12/04 00:35:13;;;;;;;7.70;3.40;;;;;;;;;;101301;1341;64027;-32
2021/12/04 00:51:20;;;;;;;6.20;3.30;;;;;;;;;;101254;1340;64061;-32
2021/12/04 00:53:47;;;;;;;6.50;3.40;;;;;;;;;;101286;1327;64102;-32
2021/12/04 00:56:18;;;;;;;7.70;4.00;;;;;;;;;;101308;1329;64116;-32
2021/12/04 00:58:44;;;;;;;8.60;3.70;;;;;;;;;;101254;1329;64135;-32
2021/12/04 01:01:11;;;;;;;6.70;3.60;;;;;;;;;;101262;1329;64046;-32
2021/12/04 01:03:41;;;;;;;6.80;3.70;;;;;;;;;;101246;1342;64771;-32
2021/12/04 01:06:11;;;;;;;8.90;3.80;;;;;;;;;;101113;1332;64103;-27
2021/12/04 01:08:39;;;;;;;6.30;3.60;;;;;;;;;;101282;1329;64797;-29
2021/12/04 01:11:08;;;;;;;6.60;3.70;;;;;;;;;;101256;1328;64083;-32
2021/12/04 01:13:38;;;;;;;7.00;3.90;;;;;;;;;;101264;1329;64084;-32
2021/12/04 01:16:05;;;;;;;7.10;3.40;;;;;;;;;;101265;1329;64161;-32
2021/12/04 01:18:35;;;;;;;6.50;3.40;;;;;;;;;;101274;1329;64118;-32
2021/12/04 01:21:05;;;;;;;7.50;3.90;;;;;;;;;;101275;1329;64217;-33
2021/12/04 01:23:35;;;;;;;7.50;4.30;;;;;;;;;;101277;1329;64264;-33
2021/12/04 01:26:02;;;;;;;6.60;3.40;;;;;;;;;;101254;1335;64136;-27
2021/12/04 01:28:29;;;;;;;7.20;4.00;;;;;;;;;;101288;1329;64115;-27
2021/12/04 01:31:00;;;;;;;6.70;3.80;;;;;;;;;;101227;1328;64224;-27
2021/12/04 01:33:29;;;;;;;8.50;3.90;;;;;;;;;;101276;1329;63992;-27
2021/12/04 01:35:59;;;;;;;7.60;3.60;;;;;;;;;;101280;1330;64231;-33
2021/12/04 01:38:29;;;;;;;7.60;3.80;;;;;;;;;;101270;1329;63988;-32
2021/12/04 01:40:56;;;;;;;8.40;3.90;;;;;;;;;;101262;1335;64697;-31
2021/12/04 01:43:25;;;;;;;6.70;3.70;;;;;;;;;;101264;1329;64182;-32
2021/12/04 01:45:54;;;;;;;7.40;3.70;;;;;;;;;;101305;1329;64215;-35
2021/12/04 01:48:23;;;;;;;6.80;3.30;;;;;;;;;;101298;1336;64099;-33
2021/12/04 01:50:55;;;;;;;8.00;3.90;;;;;;;;;;101270;1330;64084;-32
2021/12/04 01:53:26;;;;;;;7.50;4.10;;;;;;;;;;101295;1329;64232;-32
2021/12/04 01:55:56;;;;;;;6.40;3.70;;;;;;;;;;101273;1336;64129;-27
2021/12/04 01:58:24;;;;;;;6.80;4.10;;;;;;;;;;101295;1339;63963;-28
2021/12/04 02:00:54;;;;;;;6.40;3.70;;;;;;;;;;101292;1328;64033;-33
2021/12/04 02:03:22;;;;;;;7.80;4.10;;;;;;;;;;101294;1329;64002;-33
2021/12/04 02:05:49;;;;;;;7.70;3.80;;;;;;;;;;101306;1329;65290;-33
2021/12/04 02:08:18;;;;;;;6.60;3.70;;;;;;;;;;101241;1329;64030;-35
2021/12/04 02:10:45;;;;;;;8.30;4.10;;;;;;;;;;101307;1329;64137;-27
2021/12/04 02:13:16;;;;;;;7.40;3.80;;;;;;;;;;101274;1328;64098;-27
2021/12/04 02:15:44;;;;;;;6.20;4.10;;;;;;;;;;101306;1326;65809;-32
2021/12/04 02:18:14;;;;;;;5.80;3.30;;;;;;;;;;101259;1329;64617;-32
2021/12/04 02:20:44;;;;;;;7.30;4.00;;;;;;;;;;101257;1329;64230;-27
2021/12/04 02:23:14;;;;;;;6.80;3.90;;;;;;;;;;101271;1329;64010;-27
2021/12/04 02:25:44;;;;;;;6.70;3.70;;;;;;;;;;101271;1336;64141;-27
2021/12/04 02:28:11;;;;;;;5.90;3.70;;;;;;;;;;101273;1329;64087;-27
2021/12/04 02:30:43;;;;;;;7.40;3.90;;;;;;;;;;101134;1332;64045;-33
2021/12/04 02:33:13;;;;;;;6.40;3.40;;;;;;;;;;101305;1329;64165;-33
2021/12/04 02:35:46;;;;;;;7.30;4.00;;;;;;;;;;101311;1329;64120;-32
2021/12/04 02:38:13;;;;;;;6.80;3.50;;;;;;;;;;101287;1330;64126;-33
2021/12/04 02:40:43;;;;;;;7.60;4.30;;;;;;;;;;101247;1332;64142;-26
2021/12/04 02:43:10;;;;;;;7.50;4.10;;;;;;;;;;101293;1328;64241;-27
2021/12/04 02:45:42;;;;;;;6.40;3.60;;;;;;;;;;101273;1339;64096;-27
2021/12/04 02:48:12;;;;;;;6.80;3.90;;;;;;;;;;101253;1330;63964;-27
2021/12/04 02:50:39;;;;;;;7.60;4.20;;;;;;;;;;101271;1329;64165;-27
2021/12/04 02:53:09;;;;;;;7.40;4.00;;;;;;;;;;101287;1335;64084;-28
2021/12/04 02:55:36;;;;;;;6.80;4.00;;;;;;;;;;101294;1329;64182;-32
2021/12/04 02:58:06;;;;;;;6.60;3.80;;;;;;;;;;101268;1329;64395;-33
2021/12/04 03:00:33;;;;;;;7.00;3.80;;;;;;;;;;101271;1336;64217;-27
2021/12/04 03:03:03;;;;;;;6.60;3.30;;;;;;;;;;101092;1332;64282;-26
2021/12/04 03:05:33;;;;;;;7.60;4.20;;;;;;;;;;101309;1329;64232;-26
2021/12/04 03:08:04;;;;;;;7.50;4.10;;;;;;;;;;101282;1329;64102;-26
2021/12/04 03:10:34;;;;;;;7.60;4.00;;;;;;;;;;101269;1329;63254;-30
2021/12/04 03:13:01;;;;;;;8.50;4.00;;;;;;;;;;101276;1336;64011;-33
2021/12/04 03:15:32;;;;;;;6.50;3.50;;;;;;;;;;101297;1336;63990;-33
2021/12/04 03:17:59;;;;;;;6.20;3.70;;;;;;;;;;101259;1329;64108;-32
2021/12/04 03:20:26;;;;;;;7.90;3.70;;;;;;;;;;101264;1329;64136;-27
2021/12/04 03:22:59;;;;;;;7.20;4.20;;;;;;;;;;101153;1338;64264;-28
2021/12/04 03:25:29;;;;;;;6.90;3.90;;;;;;;;;;101282;1329;64148;-27
2021/12/04 03:27:55;;;;;;;6.60;3.70;;;;;;;;;;101258;1327;63993;-27
2021/12/04 03:30:40;;;;;;;6.20;3.90;;;;;;;;;;101263;1329;64074;-33
2021/12/04 03:41:08;;;;;;;6.90;4.00;;;;;;;;;;101295;1342;63990;-26
2021/12/04 03:43:35;;;;;;;6.40;3.50;;;;;;;;;;101278;1328;64041;-27
2021/12/04 03:46:03;;;;;;;8.10;4.20;;;;;;;;;;101271;1335;64022;-28
2021/12/04 03:50:58;;;;;;;6.50;3.90;;;;;;;;;;101293;1343;64078;-33
2021/12/04 03:53:28;;;;;;;6.80;4.10;;;;;;;;;;101274;1333;64258;-32
2021/12/04 03:55:55;;;;;;;8.50;4.70;;;;;;;;;;101316;1333;64159;-27
2021/12/04 03:58:25;;;;;;;7.00;4.10;;;;;;;;;;101265;1329;64120;-27
2021/12/04 04:00:52;;;;;;;7.20;4.90;;;;;;;;;;101304;1329;64125;-27
2021/12/04 04:03:19;;;;;;;8.00;4.40;;;;;;;;;;101300;1338;64097;-27
2021/12/04 04:05:46;;;;;;;6.70;3.70;;;;;;;;;;101262;1335;64124;-27
2021/12/04 04:08:14;;;;;;;6.70;4.10;;;;;;;;;;101271;1329;63963;-27
2021/12/04 04:10:42;;;;;;;7.20;4.00;;;;;;;;;;101111;1332;64081;-34
2021/12/04 04:13:11;;;;;;;7.70;4.70;;;;;;;;;;101129;1332;64072;-33
2021/12/04 04:15:41;;;;;;;7.50;4.40;;;;;;;;;;101297;1337;64226;-26
2021/12/04 04:18:11;;;;;;;7.20;4.40;;;;;;;;;;101285;1329;64093;-26
2021/12/04 04:20:38;;;;;;;7.10;3.90;;;;;;;;;;101265;1329;64102;-27
2021/12/04 04:23:05;;;;;;;7.80;4.50;;;;;;;;;;101269;1343;64005;-27
2021/12/04 04:25:35;;;;;;;7.80;4.00;;;;;;;;;;101295;1329;63958;-26
2021/12/04 04:28:05;;;;;;;8.10;4.30;;;;;;;;;;101272;1330;63998;-28
2021/12/04 04:30:36;;;;;;;7.80;4.80;;;;;;;;;;101269;1329;64114;-28
2021/12/04 04:33:04;;;;;;;7.90;4.80;;;;;;;;;;101268;1329;65143;-27
2021/12/04 04:35:34;;;;;;;8.00;4.30;;;;;;;;;;101258;1335;64123;-27
2021/12/04 04:38:17;;;;;;;7.40;4.70;;;;;;;;;;101121;1343;64003;-27
2021/12/04 05:00:34;;;;;;;8.20;4.90;;;;;;;;;;101277;1335;64102;-25
2021/12/04 05:11:20;;;;;;;7.30;4.30;;;;;;;;;;101264;1335;64043;-27
2021/12/04 05:13:47;;;;;;;8.10;4.80;;;;;;;;;;101273;1335;64124;-27
2021/12/04 05:16:17;;;;;;;8.90;4.50;;;;;;;;;;101258;1327;64122;-33
2021/12/04 05:19:13;;;;;;;9.00;4.70;;;;;;;;;;101299;1329;64084;-33
2021/12/04 05:21:37;;;;;;;8.50;5.30;;;;;;;;;;101271;1330;64133;-32
2021/12/04 05:24:07;;;;;;;8.60;5.20;;;;;;;;;;101253;1336;64100;-32
2021/12/04 05:26:34;;;;;;;8.50;4.70;;;;;;;;;;101288;1329;64105;-27
2021/12/04 05:29:04;;;;;;;7.30;4.70;;;;;;;;;;101291;1329;64071;-27
2021/12/04 05:31:33;;;;;;;8.30;5.00;;;;;;;;;;101271;1329;64020;-33
2021/12/04 05:34:03;;;;;;;8.50;4.60;;;;;;;;;;101269;1336;64435;-31
2021/12/04 05:36:30;;;;;;;7.30;4.30;;;;;;;;;;101279;1336;63985;-28
2021/12/04 05:39:00;;;;;;;7.70;4.60;;;;;;;;;;101280;1333;64182;-27
2021/12/04 05:41:27;;;;;;;8.40;4.60;;;;;;;;;;101262;1336;63981;-27
2021/12/04 05:43:59;;;;;;;8.60;5.30;;;;;;;;;;101291;1329;64113;-26
2021/12/04 05:46:28;;;;;;;7.80;4.90;;;;;;;;;;101286;1329;64000;-26
2021/12/04 05:49:05;;;;;;;9.10;5.30;;;;;;;;;;101285;1333;64207;-27
2021/12/04 05:56:59;;;;;;;8.80;4.80;;;;;;;;;;100957;1329;64079;-26
2021/12/04 05:59:25;;;;;;;8.40;4.70;;;;;;;;;;101308;1329;64156;-26
2021/12/04 06:01:56;;;;;;;7.40;4.70;;;;;;;;;;101273;1343;64684;-27
2021/12/04 06:04:22;;;;;;;8.10;4.40;;;;;;;;;;101220;1335;64240;-27
2021/12/04 06:06:50;;;;;;;9.40;5.30;;;;;;;;;;101272;1329;64053;-27
2021/12/04 06:09:19;;;;;;;9.20;5.00;;;;;;;;;;101257;1329;64122;-26
2021/12/04 06:11:46;;;;;;;8.60;5.00;;;;;;;;;;101251;1329;64023;-32
2021/12/04 06:14:16;;;;;;;7.90;4.60;;;;;;;;;;101267;1329;64276;-43
2021/12/04 06:16:46;;;;;;;7.40;4.40;;;;;;;;;;101261;1329;64289;-32
2021/12/04 06:24:51;;;;;;;7.10;4.70;;;;;;;;;;101283;1329;64140;-27
2021/12/04 06:27:18;;;;;;;7.70;4.80;;;;;;;;;;101265;1336;64087;-27
2021/12/04 06:29:44;;;;;;;7.60;4.90;;;;;;;;;;101304;1329;64024;-34
2021/12/04 06:32:14;;;;;;;8.50;4.60;;;;;;;;;;101267;1339;64259;-32
2021/12/04 06:34:41;;;;;;;8.90;4.90;;;;;;;;;;101255;1329;64199;-27
2021/12/04 06:37:08;;;;;;;9.30;5.00;;;;;;;;;;101259;1330;64086;-27
2021/12/04 06:39:38;;;;;;;7.90;4.90;;;;;;;;;;101242;1329;64102;-27
2021/12/04 06:42:08;;;;;;;7.40;4.60;;;;;;;;;;101258;1330;64012;-27
2021/12/04 06:44:38;;;;;;;7.80;4.50;;;;;;;;;;101109;1335;64107;-27
2021/12/04 06:47:08;;;;;;;8.60;4.90;;;;;;;;;;101252;1330;64072;-27
2021/12/04 06:49:41;;;;;;;7.80;4.50;;;;;;;;;;101269;1329;64203;-27
2021/12/04 06:52:18;;;;;;;7.80;4.30;;;;;;;;;;101091;1329;64131;-27
2021/12/04 06:55:00;;;;;;;7.90;4.70;;;;;;;;;;101242;1330;64142;-26
2021/12/04 06:57:32;;;;;;;7.60;4.30;;;;;;;;;;101268;1329;64221;-32
2021/12/04 07:00:04;;;;;;;7.90;4.50;;;;;;;;;;101282;1329;64229;-33
2021/12/04 07:02:33;;;;;;;7.60;5.00;;;;;;;;;;101263;1329;64095;-32
2021/12/04 07:05:01;;;;;;;7.40;4.00;;;;;;;;;;101231;1329;64127;-26
2021/12/04 07:07:31;;;;;;;8.80;5.10;;;;;;;;;;101261;1329;64399;-37
2021/12/04 07:09:58;;;;;;;7.60;4.40;;;;;;;;;;101306;1329;64110;-27
2021/12/04 07:12:25;;;;;;;7.10;4.40;;;;;;;;;;101262;1335;63976;-27
2021/12/04 07:14:55;;;;;;;7.60;4.30;;;;;;;;;;101293;1329;64148;-27
2021/12/04 07:17:21;;;;;;;7.40;4.40;;;;;;;;;;101296;1329;64296;-27
2021/12/04 07:19:48;;;;;;;7.80;4.20;;;;;;;;;;101249;1328;64204;-32
2021/12/04 07:22:15;;;;;;;7.00;4.10;;;;;;;;;;101251;1327;64150;-32
2021/12/04 07:24:45;;;;;;;7.20;4.20;;;;;;;;;;101261;1336;64137;-27
2021/12/04 07:27:13;;;;;;;7.40;3.80;;;;;;;;;;101251;1329;64905;-28
2021/12/04 07:29:43;;;;;;;7.60;4.10;;;;;;;;;;101331;1336;64233;-27
2021/12/04 07:32:13;;;;;;;7.60;4.70;;;;;;;;;;101266;1336;64056;-27
2021/12/04 07:34:40;;;;;;;8.20;4.40;;;;;;;;;;101115;1330;64009;-31
2021/12/04 07:37:10;;;;;;;7.50;4.10;;;;;;;;;;101248;1330;64132;-33
2021/12/04 07:39:40;;;;;;;7.00;4.20;;;;;;;;;;101290;1340;64203;-27
2021/12/04 07:42:07;;;;;;;6.80;4.10;;;;;;;;;;101270;1329;63993;-28
2021/12/04 07:44:37;;;;;;;6.60;3.90;;;;;;;;;;101242;1329;64146;-27
2021/12/04 07:47:06;;;;;;;7.60;4.00;;;;;;;;;;101276;1340;64009;-29
2021/12/04 07:49:37;;;;;;;7.60;4.40;;;;;;;;;;101249;1340;63992;-27
2021/12/04 07:52:08;;;;;;;7.20;3.80;;;;;;;;;;101255;1333;64161;-29
2021/12/04 07:54:35;;;;;;;6.70;4.20;;;;;;;;;;101287;1335;64017;-33
2021/12/04 07:57:05;;;;;;;7.70;4.50;;;;;;;;;;101282;1330;64170;-32
2021/12/04 07:59:35;;;;;;;7.30;4.40;;;;;;;;;;101074;1336;64105;-31
2021/12/04 08:02:02;;;;;;;7.90;4.20;;;;;;;;;;101271;1329;64100;-32
2021/12/04 08:04:29;;;;;;;6.70;4.10;;;;;;;;;;101155;1332;64079;-26
2021/12/04 08:06:59;;;;;;;6.90;3.90;;;;;;;;;;101258;1329;64036;-27
2021/12/04 08:09:29;;;;;;;7.60;4.20;;;;;;;;;;100987;1328;389031;-27
2021/12/04 08:11:56;;;;;;;6.90;4.50;;;;;;;;;;101241;1329;64122;-27
2021/12/04 08:14:23;;;;;;;7.70;4.00;;;;;;;;;;101245;1329;64129;-27
2021/12/04 08:16:50;;;;;;;7.00;3.70;;;;;;;;;;101257;1329;64214;-26
2021/12/04 08:19:17;;;;;;;6.50;3.50;;;;;;;;;;101272;1342;64124;-27
2021/12/04 08:21:47;;;;;;;7.70;3.80;;;;;;;;;;101251;1336;64007;-34
2021/12/04 08:24:17;;;;;;;6.50;3.60;;;;;;;;;;101258;1335;64045;-28
2021/12/04 08:26:49;;;;;;;8.30;4.30;;;;;;;;;;101233;1332;64178;-27
2021/12/04 08:29:23;;;;;;;6.50;3.90;;;;;;;;;;101198;1330;64117;-29
2021/12/04 08:31:53;;;;;;;6.90;3.90;;;;;;;;;;101177;1331;64107;-33
2021/12/04 08:34:24;;;;;;;7.80;3.90;;;;;;;;;;101299;1336;64001;-29
2021/12/04 08:36:56;;;;;;;7.10;4.20;;;;;;;;;;100802;1329;64174;-27
2021/12/04 08:39:27;;;;;;;6.90;3.40;;;;;;;;;;101044;1329;64080;-31
2021/12/04 08:41:59;;;;;;;6.50;3.70;;;;;;;;;;101101;1332;63984;-36
2021/12/04 08:44:30;;;;;;;6.90;3.90;;;;;;;;;;101004;1334;64058;-33
2021/12/04 08:46:58;;;;;;;6.40;3.80;;;;;;;;;;100837;1330;64218;-34
2021/12/04 08:49:26;;;;;;;6.70;3.70;;;;;;;;;;101274;1329;64169;-28
2021/12/04 08:51:53;;;;;;;5.80;3.50;;;;;;;;;;101264;1342;63985;-42
2021/12/04 08:54:20;;;;;;;6.50;4.10;;;;;;;;;;101253;1335;64080;-30
2021/12/04 08:56:47;;;;;;;6.10;3.50;;;;;;;;;;101258;1335;64091;-32
2021/12/04 08:59:14;;;;;;;8.00;3.50;;;;;;;;;;101278;1330;64144;-29
2021/12/04 09:01:44;;;;;;;6.00;3.00;;;;;;;;;;101289;1336;64021;-28
2021/12/04 09:04:14;;;;;;;6.70;4.00;;;;;;;;;;101225;1336;64122;-28
2021/12/04 09:06:44;;;;;;;6.20;3.30;;;;;;;;;;101274;1329;64168;-31
2021/12/04 09:09:12;;;;;;;6.90;3.50;;;;;;;;;;101258;1341;64219;-32
2021/12/04 09:11:44;;;;;;;6.40;3.30;;;;;;;;;;101246;1330;64128;-32
2021/12/04 09:14:16;;;;;;;6.00;3.50;;;;;;;;;;101283;1327;64172;-28
2021/12/04 09:16:43;;;;;;;5.50;3.10;;;;;;;;;;101251;1329;64567;-30
2021/12/04 09:19:13;;;;;;;6.70;3.40;;;;;;;;;;101300;1336;63992;-27
2021/12/04 09:21:45;;;;;;;6.40;3.50;;;;;;;;;;101144;1339;64220;-32
2021/12/04 09:24:15;;;;;;;7.40;3.90;;;;;;;;;;101163;1338;64146;-31
2021/12/04 09:26:52;;;;;;;6.40;3.50;;;;;;;;;;101314;1329;64089;-27
2021/12/04 10:00:12;;;;;;;5.90;3.30;;;;;;;;;;101145;1330;64096;-28
2021/12/04 10:14:46;;;;;;;6.20;3.20;;;;;;;;;;101268;1329;63965;-27
2021/12/04 10:34:00;;;;;;;6.20;3.40;;;;;;;;;;101273;1329;63967;-32
2021/12/04 10:36:32;;;;;;;6.30;3.20;;;;;;;;;;101287;1329;64134;-27
2021/12/04 10:39:04;;;;;;;5.80;2.80;;;;;;;;;;101254;1330;63978;-27
2021/12/04 10:41:42;;;;;;;6.20;3.10;;;;;;;;;;101235;1329;64203;-27
2021/12/04 10:44:15;;;;;;;6.60;3.50;;;;;;;;;;101272;1335;64004;-28
2021/12/04 10:46:43;;;;;;;;;;;;;;;;;;101298;1329;64121;-31
2021/12/04 10:49:17;;;;;;;7.00;3.00;;;;;;;;;;101253;1329;64180;-27
2021/12/04 10:51:49;;;;;;;6.00;3.30;;;;;;;;;;101260;1329;64113;-32
2021/12/04 10:54:29;;;;;;;6.40;3.20;;;;;;;;;;101143;1332;64019;-33
2021/12/04 11:00:08;;;;;;;6.10;3.10;;;;;;;;;;101281;1329;64459;-32
2021/12/04 11:02:37;;;;;;;6.40;3.50;;;;;;;;;;101250;1335;64059;-32
2021/12/04 11:28:12;;;;;;;7.70;3.50;;;;;;;;;;101268;1335;64120;-37
2021/12/04 11:46:45;;;;;;;7.30;3.50;;;;;;;;;;101241;1329;64130;-33
2021/12/04 11:49:20;;;;;;;6.30;3.60;;;;;;;;;;101148;1332;64136;-32
2021/12/04 11:51:47;;;;;;;7.10;3.70;;;;;;;;;;101287;1329;64075;-27
2021/12/04 11:54:17;;;;;;;6.90;3.70;;;;;;;;;;101263;1335;63982;-34
2021/12/04 11:56:56;;;;;;;6.70;3.80;;;;;;;;;;101242;1343;64027;-32
2021/12/04 11:59:27;;;;;;;6.60;3.60;;;;;;;;;;101207;1329;64197;-32
2021/12/04 12:01:56;;;;;;;6.90;3.20;;;;;;;;;;101249;1329;64030;-32
2021/12/04 12:04:31;;;;;;;13.00;3.90;;;;;;;;;;101157;1332;64033;-28
2021/12/04 12:07:15;;;;;;;6.40;3.40;;;;;;;;;;101262;1335;64197;-27
2021/12/04 12:09:43;;;;;;;6.60;3.40;;;;;;;;;;101260;1328;64233;-27
2021/12/04 12:12:15;;;;;;;6.30;3.30;;;;;;;;;;101171;1330;64187;-26
2021/12/04 12:14:48;;;;;;;6.50;3.50;;;;;;;;;;101305;1329;64097;-34
2021/12/04 12:17:29;;;;;;;7.20;3.60;;;;;;;;;;101128;1336;64144;-27
2021/12/04 12:19:56;;;;;;;7.60;3.80;;;;;;;;;;101244;1329;64794;-27
2021/12/04 12:22:33;;;;;;;7.20;3.70;;;;;;;;;;101165;1332;64191;-27
2021/12/04 12:25:14;;;;;;;5.90;3.20;;;;;;;;;;101243;1329;64004;-26
2021/12/04 12:27:55;;;;;;;7.20;3.40;;;;;;;;;;101165;1329;64124;-38
2021/12/04 12:36:23;;;;;;;7.10;3.80;;;;;;;;;;100864;1329;62758;-32
2021/12/04 12:38:53;;;;;;;6.50;3.50;;;;;;;;;;101286;1329;64212;-32
2021/12/04 12:41:35;;;;;;;7.10;3.20;;;;;;;;;;101243;1329;64141;-27
2021/12/04 12:44:15;;;;;;;6.70;3.50;;;;;;;;;;101142;1332;65335;-27
2021/12/04 12:46:51;;;;;;;6.70;3.80;;;;;;;;;;101271;1329;64105;-32
2021/12/04 12:49:36;;;;;;;7.50;3.50;;;;;;;;;;101259;1333;63944;-30
2021/12/04 12:52:06;;;;;;;6.10;3.60;;;;;;;;;;101150;1331;64148;-27
2021/12/04 12:54:34;;;;;;;5.50;3.30;;;;;;;;;;101289;1335;64036;-28
2021/12/04 12:57:11;;;;;;;6.50;3.30;;;;;;;;;;101266;1329;64150;-28
2021/12/04 13:14:12;;;;;;;6.50;3.80;;;;;;;;;;101276;1336;64133;-27
2021/12/04 13:16:43;;;;;;;7.40;3.80;;;;;;;;;;101262;1329;64137;-33
2021/12/04 13:19:13;;;;;;;7.60;3.80;;;;;;;;;;101280;1328;64138;-32
2021/12/04 13:21:45;;;;;;;7.20;3.80;;;;;;;;;;101245;1336;64109;-27
2021/12/04 13:24:12;;;;;;;6.10;3.50;;;;;;;;;;101165;1332;64151;-32
2021/12/04 13:26:45;;;;;;;6.90;3.60;;;;;;;;;;101259;1329;64159;-33
2021/12/04 13:29:14;;;;;;;5.70;3.60;;;;;;;;;;101291;1340;64193;-33
2021/12/04 13:31:41;;;;;;;6.40;3.60;;;;;;;;;;101270;1329;64104;-32
2021/12/04 13:34:09;;;;;;;7.30;4.20;;;;;;;;;;101291;1333;64097;-32
2021/12/04 13:36:37;;;;;;;6.60;3.70;;;;;;;;;;101291;1329;64088;-26
2021/12/04 13:39:08;;;;;;;6.70;3.70;;;;;;;;;;101278;1329;64021;-32
2021/12/04 13:41:36;;;;;;;7.10;3.80;;;;;;;;;;101278;1329;64092;-28
2021/12/04 13:44:05;;;;;;;6.60;3.80;;;;;;;;;;101132;1332;64105;-28
2021/12/04 13:46:43;;;;;;;7.10;3.90;;;;;;;;;;101259;1330;64102;-27
2021/12/04 13:49:12;;;;;;;7.70;4.20;;;;;;;;;;101267;1329;63982;-27
2021/12/04 13:51:39;;;;;;;8.90;4.30;;;;;;;;;;101272;1332;64139;-27
2021/12/04 13:54:09;;;;;;;9.10;4.50;;;;;;;;;;101275;1328;64107;-31
2021/12/04 13:56:39;;;;;;;9.50;5.20;;;;;;;;;;101131;1329;64027;-28
2021/12/04 13:59:07;;;;;;;11.00;5.40;;;;;;;;;;101266;1329;64165;-38
2021/12/04 14:01:42;;;;;;;7.50;4.60;;;;;;;;;;101273;1333;64235;-28
2021/12/04 14:04:15;;;;;;;10.00;5.30;;;;;;;;;;101279;1333;64083;-26
2021/12/04 14:06:42;;;;;;;;;;;;;;;;;;101316;1329;65694;-29
2021/12/04 14:09:12;;;;;;;11.80;4.80;;;;;;;;;;101251;1329;64016;-32
2021/12/04 14:11:43;;;;;;;9.80;5.00;;;;;;;;;;101279;1329;64219;-32
2021/12/04 14:14:12;;;;;;;11.00;5.50;;;;;;;;;;101294;1329;64033;-26
2021/12/04 14:16:43;;;;;;;9.40;4.80;;;;;;;;;;100997;1341;64125;-27
2021/12/04 14:19:14;;;;;;;11.80;5.10;;;;;;;;;;101260;1339;64004;-27
2021/12/04 14:22:01;;;;;;;9.80;5.70;;;;;;;;;;101244;1330;64163;-27
2021/12/04 14:24:32;;;;;;;9.70;5.20;;;;;;;;;;101283;1329;64014;-27
2021/12/04 14:27:04;;;;;;;10.40;4.90;;;;;;;;;;101288;1343;64101;-29
2021/12/04 14:29:37;;;;;;;14.00;5.50;;;;;;;;;;101248;1329;64102;-33
2021/12/04 14:32:07;;;;;;;9.80;5.30;;;;;;;;;;101150;1344;63982;-36
2021/12/04 14:34:34;;;;;;;11.70;4.80;;;;;;;;;;101235;1329;64110;-32
2021/12/04 14:37:07;;;;;;;11.00;5.90;;;;;;;;;;101273;1329;64240;-32
2021/12/04 14:39:34;;;;;;;10.30;5.10;;;;;;;;;;101285;1336;64033;-32
2021/12/04 14:42:11;;;;;;;10.70;5.30;;;;;;;;;;101275;1330;64125;-32
2021/12/04 14:44:40;;;;;;;12.80;5.30;;;;;;;;;;101105;1345;64137;-32
2021/12/04 14:47:10;;;;;;;12.10;6.00;;;;;;;;;;101265;1330;64157;-31
2021/12/04 14:49:39;;;;;;;10.50;5.70;;;;;;;;;;101311;1329;64123;-31
2021/12/04 14:52:06;;;;;;;12.50;6.40;;;;;;;;;;101177;1339;64137;-32
2021/12/04 14:54:39;;;;;;;11.00;5.60;;;;;;;;;;101254;1329;64205;-27
2021/12/04 14:57:15;;;;;;;11.00;6.00;;;;;;;;;;101291;1329;64100;-27
2021/12/04 14:59:43;;;;;;;14.10;6.40;;;;;;;;;;101249;1340;63992;-32
2021/12/04 15:02:14;;;;;;;12.70;7.10;;;;;;;;;;101254;1336;64194;-32
2021/12/04 15:04:44;;;;;;;10.80;6.10;;;;;;;;;;101191;1344;64024;-46
2021/12/04 15:07:22;;;;;;;13.00;6.40;;;;;;;;;;101271;1343;64150;-28
2021/12/04 15:09:51;;;;;;;13.50;6.80;;;;;;;;;;101271;1329;64011;-34
2021/12/04 15:12:26;;;;;;;12.90;7.10;;;;;;;;;;101261;1330;64143;-29
2021/12/04 15:14:58;;;;;;;11.20;6.50;;;;;;;;;;101286;1329;64078;-27
2021/12/04 15:17:30;;;;;;;11.30;5.80;;;;;;;;;;101266;1329;65288;-28
2021/12/04 15:20:05;;;;;;;12.80;6.40;;;;;;;;;;101173;1328;64203;-33
2021/12/04 15:22:41;;;;;;;12.20;6.30;;;;;;;;;;101232;1343;64015;-33
2021/12/04 15:25:13;;;;;;;12.30;6.80;;;;;;;;;;101222;1329;64082;-28
2021/12/04 15:27:43;;;;;;;12.70;6.40;;;;;;;;;;101293;1329;64105;-26
2021/12/04 15:30:14;;;;;;;12.30;6.20;;;;;;;;;;101270;1336;64034;-33
2021/12/04 15:32:44;;;;;;;11.60;6.40;;;;;;;;;;101247;1335;64110;-32
2021/12/04 15:35:33;;;;;;;11.80;7.00;;;;;;;;;;101307;1335;64126;-32
2021/12/04 15:38:08;;;;;;;14.30;6.40;;;;;;;;;;101276;1329;64135;-31
2021/12/04 15:40:50;;;;;;;12.10;6.10;;;;;;;;;;101273;1342;63998;-33
2021/12/04 15:43:25;;;;;;;11.20;6.50;;;;;;;;;;101282;1336;64090;-33
2021/12/04 15:54:11;;;;;;;13.20;5.90;;;;;;;;;;100838;1347;64027;-32
2021/12/04 15:56:47;;;;;;;8.20;5.20;;;;;;;;;;100888;1333;64734;-32
2021/12/04 15:59:15;;;;;;;10.10;5.50;;;;;;;;;;100893;1345;64396;-32
2021/12/04 16:01:46;;;;;;;11.80;5.80;;;;;;;;;;100735;1341;64073;-32
2021/12/04 16:04:28;;;;;;;10.20;5.50;;;;;;;;;;100881;1346;64156;-34
2021/12/04 16:06:56;;;;;;;9.50;5.70;;;;;;;;;;100951;1336;64043;-34
2021/12/04 16:09:28;;;;;;;12.60;6.00;;;;;;;;;;101047;1342;311751;-27
2021/12/04 16:11:59;;;;;;;11.10;6.50;;;;;;;;;;101268;1342;64031;-27
2021/12/04 16:14:33;;;;;;;8.30;5.30;;;;;;;;;;101264;1333;63984;-33
2021/12/04 16:17:03;;;;;;;10.80;5.90;;;;;;;;;;101264;1337;64189;-33
2021/12/04 16:19:32;;;;;;;9.60;6.20;;;;;;;;;;101276;1329;64127;-39
2021/12/04 16:22:02;;;;;;;9.80;5.70;;;;;;;;;;101266;1343;64148;-32
2021/12/04 16:24:32;;;;;;;8.20;5.50;;;;;;;;;;101239;1339;64168;-31
2021/12/04 16:29:50;;;;;;;9.10;5.20;;;;;;;;;;101257;1329;63986;-27
2021/12/04 16:40:02;;;;;;;10.20;5.50;;;;;;;;;;101269;1342;64097;-32
2021/12/04 16:42:34;;;;;;;9.60;6.00;;;;;;;;;;101274;1342;64059;-32
2021/12/04 16:45:01;;;;;;;10.20;5.80;;;;;;;;;;101260;1336;64108;-27
2021/12/04 16:47:28;;;;;;;9.40;5.50;;;;;;;;;;101297;1343;64086;-27
2021/12/04 16:49:56;;;;;;;10.10;5.90;;;;;;;;;;101246;1343;64231;-32
2021/12/04 16:55:23;;;;;;;10.20;5.30;;;;;;;;;;101308;1329;64122;-27
2021/12/04 17:00:23;;;;;;;10.30;5.70;;;;;;;;;;101172;1342;64433;-33
2021/12/04 17:02:51;;;;;;;10.40;6.00;;;;;;;;;;101289;1343;64054;-34
2021/12/04 17:05:21;;;;;;;9.80;5.90;;;;;;;;;;101109;1342;64161;-32
2021/12/04 17:07:49;;;;;;;10.90;6.20;;;;;;;;;;101319;1332;63987;-33
2021/12/04 17:10:16;;;;;;;11.50;5.70;;;;;;;;;;101153;1345;64163;-27
2021/12/04 17:12:43;;;;;;;9.90;5.90;;;;;;;;;;101137;1342;65651;-27
2021/12/04 17:15:11;;;;;;;9.00;5.50;;;;;;;;;;101267;1340;64208;-27
2021/12/04 17:17:44;;;;;;;8.90;5.90;;;;;;;;;;101297;1342;64683;-27
2021/12/04 17:20:16;;;;;;;9.30;5.70;;;;;;;;;;101151;1338;64104;-32
2021/12/04 17:22:50;;;;;;;10.20;6.20;;;;;;;;;;101123;1342;64051;-35
2021/12/04 17:25:18;;;;;;;9.70;5.70;;;;;;;;;;101169;1344;64151;-32
2021/12/04 17:27:45;;;;;;;11.30;6.30;;;;;;;;;;101069;1345;64161;-30
2021/12/04 17:30:15;;;;;;;11.60;5.60;;;;;;;;;;101302;1335;64095;-28
2021/12/04 17:32:42;;;;;;;8.90;5.40;;;;;;;;;;101289;1341;64270;-27
2021/12/04 17:35:11;;;;;;;9.60;5.80;;;;;;;;;;101104;1345;64112;-28
2021/12/04 17:37:38;;;;;;;10.40;6.10;;;;;;;;;;101292;1343;64094;-29
2021/12/04 17:40:07;;;;;;;10.60;6.50;;;;;;;;;;101297;1329;65325;-27
2021/12/04 17:42:38;;;;;;;9.40;6.00;;;;;;;;;;101090;1329;64008;-29
2021/12/04 17:45:07;;;;;;;10.40;6.30;;;;;;;;;;101256;1341;64216;-29
2021/12/04 17:47:41;;;;;;;9.60;6.10;;;;;;;;;;101275;1342;64087;-29
2021/12/04 17:50:13;;;;;;;11.50;6.20;;;;;;;;;;101300;1327;64104;-26
2021/12/04 17:52:43;;;;;;;11.90;6.60;;;;;;;;;;101184;1343;64232;-27
2021/12/04 17:55:11;;;;;;;11.50;7.40;;;;;;;;;;101108;1342;64131;-28
2021/12/04 17:57:41;;;;;;;10.70;6.80;;;;;;;;;;101324;1340;64114;-28
2021/12/04 18:00:16;;;;;;;12.90;6.70;;;;;;;;;;101316;1342;64114;-29
2021/12/04 18:02:49;;;;;;;12.10;7.20;;;;;;;;;;101305;1336;63936;-29
2021/12/04 18:05:24;;;;;;;;;;;;;;;;;;101296;1336;64554;-29
2021/12/04 18:07:53;;;;;;;12.00;7.00;;;;;;;;;;101121;1331;64163;-37
2021/12/04 18:10:22;;;;;;;10.90;7.20;;;;;;;;;;101187;1343;64067;-29
2021/12/04 18:12:55;;;;;;;11.30;7.00;;;;;;;;;;101284;1342;64057;-29
2021/12/04 18:15:28;;;;;;;12.30;8.00;;;;;;;;;;101304;1343;64149;-28
2021/12/04 18:17:58;;;;;;;10.70;7.10;;;;;;;;;;101315;1342;64126;-28